Alexandria, Pennsylvania
Current Conditions -  °F | °C
As of 8:53 AM on Sunday 25 Jan 2015 (Local Time) from KAOO Reporting Station
Overcast Overcast  
Wind Chill: 27°   Ceiling: 1200
Heat Index: 34°   Visibility: 8mi
Dew Point: 31°   Wind: 8mph
Humidity: 89%   Direction: 280°W
Pressure: 29.74"   Gusts: NA
Location:  40.56°N, 78.1°W
Report Text: KAOO 251353Z AUTO 28007KT 8SM OVC012 01/M01 A2974 RMK AO2 SLP085 T00111006
Loading
Personal Weather Stations






























Interactive Weather Map New forecast layout! Learn more

10-Day Weather Forecast

Advertisements
Track Severe Weather on mobile